sensor_id;sensor_type;location;lat;lon;timestamp;P1;durP1;ratioP1;P2;durP2;ratioP2
30872;SDS011;17579;42.690;2.586;2023-06-14T00:02:05;1.55;;;1.45;;
30872;SDS011;17579;42.690;2.586;2023-06-14T00:04:34;1.23;;;1.10;;
30872;SDS011;17579;42.690;2.586;2023-06-14T00:07:04;1.60;;;1.50;;
30872;SDS011;17579;42.690;2.586;2023-06-14T00:09:34;1.73;;;1.40;;
30872;SDS011;17579;42.690;2.586;2023-06-14T00:12:01;2.25;;;1.45;;
30872;SDS011;17579;42.690;2.586;2023-06-14T00:14:49;2.33;;;1.33;;
30872;SDS011;17579;42.690;2.586;2023-06-14T00:17:14;3.38;;;1.50;;
30872;SDS011;17579;42.690;2.586;2023-06-14T00:19:45;1.70;;;1.40;;
30872;SDS011;17579;42.690;2.586;2023-06-14T00:22:25;1.67;;;1.20;;
30872;SDS011;17579;42.690;2.586;2023-06-14T00:24:54;2.45;;;1.35;;
30872;SDS011;17579;42.690;2.586;2023-06-14T00:27:43;2.80;;;1.20;;
30872;SDS011;17579;42.690;2.586;2023-06-14T00:30:11;3.70;;;1.30;;
30872;SDS011;17579;42.690;2.586;2023-06-14T00:32:39;1.70;;;1.30;;
30872;SDS011;17579;42.690;2.586;2023-06-14T00:35:25;2.20;;;1.40;;
30872;SDS011;17579;42.690;2.586;2023-06-14T00:38:01;1.50;;;1.30;;
30872;SDS011;17579;42.690;2.586;2023-06-14T00:40:30;1.40;;;1.30;;
30872;SDS011;17579;42.690;2.586;2023-06-14T00:42:55;1.50;;;1.40;;
30872;SDS011;17579;42.690;2.586;2023-06-14T00:45:41;1.45;;;1.35;;
30872;SDS011;17579;42.690;2.586;2023-06-14T00:48:07;1.50;;;1.40;;
30872;SDS011;17579;42.690;2.586;2023-06-14T00:50:57;1.77;;;1.20;;
30872;SDS011;17579;42.690;2.586;2023-06-14T00:53:35;7.68;;;1.50;;
30872;SDS011;17579;42.690;2.586;2023-06-14T00:56:01;1.75;;;1.20;;
30872;SDS011;17579;42.690;2.586;2023-06-14T00:59:18;1.52;;;1.17;;
30872;SDS011;17579;42.690;2.586;2023-06-14T01:01:20;1.25;;;1.15;;
30872;SDS011;17579;42.690;2.586;2023-06-14T01:03:48;1.50;;;1.05;;
30872;SDS011;17579;42.690;2.586;2023-06-14T01:09:01;1.58;;;1.20;;
30872;SDS011;17579;42.690;2.586;2023-06-14T01:11:38;1.77;;;1.05;;
30872;SDS011;17579;42.690;2.586;2023-06-14T01:14:11;1.20;;;1.10;;
30872;SDS011;17579;42.690;2.586;2023-06-14T01:16:46;1.35;;;1.25;;
30872;SDS011;17579;42.690;2.586;2023-06-14T01:19:18;2.20;;;1.10;;
30872;SDS011;17579;42.690;2.586;2023-06-14T01:21:48;1.75;;;1.00;;
30872;SDS011;17579;42.690;2.586;2023-06-14T01:24:17;1.15;;;0.88;;
30872;SDS011;17579;42.690;2.586;2023-06-14T01:27:00;0.80;;;0.80;;
30872;SDS011;17579;42.690;2.586;2023-06-14T01:29:38;1.00;;;1.00;;
30872;SDS011;17579;42.690;2.586;2023-06-14T01:32:11;0.88;;;0.85;;
30872;SDS011;17579;42.690;2.586;2023-06-14T01:34:42;1.13;;;1.00;;
30872;SDS011;17579;42.690;2.586;2023-06-14T01:37:31;1.52;;;1.00;;
30872;SDS011;17579;42.690;2.586;2023-06-14T01:40:03;1.33;;;0.90;;
30872;SDS011;17579;42.690;2.586;2023-06-14T01:42:34;3.35;;;1.20;;
30872;SDS011;17579;42.690;2.586;2023-06-14T01:45:02;1.77;;;1.05;;
30872;SDS011;17579;42.690;2.586;2023-06-14T01:47:35;3.53;;;0.93;;
30872;SDS011;17579;42.690;2.586;2023-06-14T01:50:02;0.80;;;0.80;;
30872;SDS011;17579;42.690;2.586;2023-06-14T01:52:29;1.40;;;0.80;;
30872;SDS011;17579;42.690;2.586;2023-06-14T01:54:55;0.88;;;0.88;;
30872;SDS011;17579;42.690;2.586;2023-06-14T01:57:23;1.02;;;1.00;;
30872;SDS011;17579;42.690;2.586;2023-06-14T01:59:56;0.77;;;0.77;;
30872;SDS011;17579;42.690;2.586;2023-06-14T02:02:24;1.67;;;0.70;;
30872;SDS011;17579;42.690;2.586;2023-06-14T02:05:11;0.98;;;0.88;;
30872;SDS011;17579;42.690;2.586;2023-06-14T02:07:44;1.30;;;1.20;;
30872;SDS011;17579;42.690;2.586;2023-06-14T02:10:12;1.10;;;1.00;;
30872;SDS011;17579;42.690;2.586;2023-06-14T02:12:46;1.30;;;1.20;;
30872;SDS011;17579;42.690;2.586;2023-06-14T02:15:14;1.15;;;1.05;;
30872;SDS011;17579;42.690;2.586;2023-06-14T02:17:41;1.25;;;1.15;;
30872;SDS011;17579;42.690;2.586;2023-06-14T02:20:07;1.70;;;1.40;;
30872;SDS011;17579;42.690;2.586;2023-06-14T02:22:33;1.52;;;1.40;;
30872;SDS011;17579;42.690;2.586;2023-06-14T02:24:59;1.63;;;1.48;;
30872;SDS011;17579;42.690;2.586;2023-06-14T02:27:35;1.42;;;1.33;;
30872;SDS011;17579;42.690;2.586;2023-06-14T02:30:11;1.60;;;1.50;;
30872;SDS011;17579;42.690;2.586;2023-06-14T02:32:37;1.70;;;1.60;;
30872;SDS011;17579;42.690;2.586;2023-06-14T02:35:13;2.45;;;1.88;;
30872;SDS011;17579;42.690;2.586;2023-06-14T02:37:41;1.65;;;1.55;;
30872;SDS011;17579;42.690;2.586;2023-06-14T02:40:11;2.63;;;1.27;;
30872;SDS011;17579;42.690;2.586;2023-06-14T02:42:59;1.83;;;1.73;;
30872;SDS011;17579;42.690;2.586;2023-06-14T02:45:29;1.70;;;1.52;;
30872;SDS011;17579;42.690;2.586;2023-06-14T02:47:55;2.22;;;1.60;;
30872;SDS011;17579;42.690;2.586;2023-06-14T02:50:25;2.00;;;1.67;;
30872;SDS011;17579;42.690;2.586;2023-06-14T02:52:58;1.48;;;1.38;;
30872;SDS011;17579;42.690;2.586;2023-06-14T02:55:44;1.70;;;1.60;;
30872;SDS011;17579;42.690;2.586;2023-06-14T02:58:16;1.88;;;1.55;;
30872;SDS011;17579;42.690;2.586;2023-06-14T03:00:50;1.85;;;1.75;;
30872;SDS011;17579;42.690;2.586;2023-06-14T03:03:29;1.80;;;1.70;;
30872;SDS011;17579;42.690;2.586;2023-06-14T03:06:04;1.70;;;1.60;;
30872;SDS011;17579;42.690;2.586;2023-06-14T03:08:41;2.03;;;1.88;;
30872;SDS011;17579;42.690;2.586;2023-06-14T03:11:19;1.67;;;1.58;;
30872;SDS011;17579;42.690;2.586;2023-06-14T03:14:01;1.60;;;1.50;;
30872;SDS011;17579;42.690;2.586;2023-06-14T03:16:29;3.15;;;1.50;;
30872;SDS011;17579;42.690;2.586;2023-06-14T03:19:15;2.15;;;1.30;;
30872;SDS011;17579;42.690;2.586;2023-06-14T03:21:51;1.40;;;1.30;;
30872;SDS011;17579;42.690;2.586;2023-06-14T03:24:18;1.00;;;1.00;;
30872;SDS011;17579;42.690;2.586;2023-06-14T03:26:49;1.50;;;1.40;;
30872;SDS011;17579;42.690;2.586;2023-06-14T03:29:35;1.67;;;1.25;;
30872;SDS011;17579;42.690;2.586;2023-06-14T03:32:11;1.10;;;1.10;;
30872;SDS011;17579;42.690;2.586;2023-06-14T03:37:33;3.03;;;1.35;;
30872;SDS011;17579;42.690;2.586;2023-06-14T03:39:59;0.95;;;0.93;;
30872;SDS011;17579;42.690;2.586;2023-06-14T03:42:34;1.42;;;1.30;;
30872;SDS011;17579;42.690;2.586;2023-06-14T03:45:17;1.98;;;1.17;;
30872;SDS011;17579;42.690;2.586;2023-06-14T03:47:45;1.80;;;1.15;;
30872;SDS011;17579;42.690;2.586;2023-06-14T03:50:14;1.50;;;1.20;;
30872;SDS011;17579;42.690;2.586;2023-06-14T03:52:40;2.72;;;1.13;;
30872;SDS011;17579;42.690;2.586;2023-06-14T03:55:11;1.45;;;0.90;;
30872;SDS011;17579;42.690;2.586;2023-06-14T03:57:38;1.25;;;1.15;;
30872;SDS011;17579;42.690;2.586;2023-06-14T04:00:04;0.90;;;0.90;;
30872;SDS011;17579;42.690;2.586;2023-06-14T04:05:28;1.30;;;1.20;;
30872;SDS011;17579;42.690;2.586;2023-06-14T04:08:02;1.98;;;1.00;;
30872;SDS011;17579;42.690;2.586;2023-06-14T04:10:28;1.10;;;1.10;;
30872;SDS011;17579;42.690;2.586;2023-06-14T04:12:58;1.00;;;1.00;;
30872;SDS011;17579;42.690;2.586;2023-06-14T04:15:44;1.77;;;1.00;;
30872;SDS011;17579;42.690;2.586;2023-06-14T04:18:11;0.90;;;0.90;;
30872;SDS011;17579;42.690;2.586;2023-06-14T04:20:43;2.70;;;0.77;;
30872;SDS011;17579;42.690;2.586;2023-06-14T04:23:15;0.90;;;0.90;;
30872;SDS011;17579;42.690;2.586;2023-06-14T04:26:04;0.80;;;0.80;;
30872;SDS011;17579;42.690;2.586;2023-06-14T04:28:30;2.30;;;1.08;;
30872;SDS011;17579;42.690;2.586;2023-06-14T04:31:02;1.10;;;1.02;;
30872;SDS011;17579;42.690;2.586;2023-06-14T04:33:34;1.05;;;0.95;;
30872;SDS011;17579;42.690;2.586;2023-06-14T04:36:09;2.55;;;1.10;;
30872;SDS011;17579;42.690;2.586;2023-06-14T04:38:38;0.90;;;0.90;;
30872;SDS011;17579;42.690;2.586;2023-06-14T04:41:10;1.35;;;1.20;;
30872;SDS011;17579;42.690;2.586;2023-06-14T04:43:41;3.58;;;1.48;;
30872;SDS011;17579;42.690;2.586;2023-06-14T04:46:09;2.42;;;1.10;;
30872;SDS011;17579;42.690;2.586;2023-06-14T04:48:39;1.55;;;1.20;;
30872;SDS011;17579;42.690;2.586;2023-06-14T04:51:09;1.30;;;1.10;;
30872;SDS011;17579;42.690;2.586;2023-06-14T04:53:46;1.83;;;1.58;;
30872;SDS011;17579;42.690;2.586;2023-06-14T04:56:21;1.63;;;1.08;;
30872;SDS011;17579;42.690;2.586;2023-06-14T04:58:50;1.90;;;1.42;;
30872;SDS011;17579;42.690;2.586;2023-06-14T05:01:25;2.67;;;1.50;;
30872;SDS011;17579;42.690;2.586;2023-06-14T05:03:59;1.70;;;1.60;;
30872;SDS011;17579;42.690;2.586;2023-06-14T05:06:35;2.83;;;1.50;;
30872;SDS011;17579;42.690;2.586;2023-06-14T05:09:13;3.13;;;1.52;;
30872;SDS011;17579;42.690;2.586;2023-06-14T05:11:44;1.58;;;1.48;;
30872;SDS011;17579;42.690;2.586;2023-06-14T05:14:15;1.48;;;1.27;;
30872;SDS011;17579;42.690;2.586;2023-06-14T05:16:44;1.40;;;1.30;;
30872;SDS011;17579;42.690;2.586;2023-06-14T05:19:18;2.13;;;0.90;;
30872;SDS011;17579;42.690;2.586;2023-06-14T05:22:28;1.33;;;1.00;;
30872;SDS011;17579;42.690;2.586;2023-06-14T05:24:36;1.42;;;0.98;;
30872;SDS011;17579;42.690;2.586;2023-06-14T05:27:16;0.80;;;0.80;;
30872;SDS011;17579;42.690;2.586;2023-06-14T05:29:41;1.30;;;0.90;;
30872;SDS011;17579;42.690;2.586;2023-06-14T05:32:24;1.15;;;1.08;;
30872;SDS011;17579;42.690;2.586;2023-06-14T05:34:53;2.00;;;1.35;;
30872;SDS011;17579;42.690;2.586;2023-06-14T05:37:19;1.75;;;1.50;;
30872;SDS011;17579;42.690;2.586;2023-06-14T05:39:47;1.67;;;1.58;;
30872;SDS011;17579;42.690;2.586;2023-06-14T05:42:19;1.50;;;1.40;;
30872;SDS011;17579;42.690;2.586;2023-06-14T05:44:44;4.72;;;1.40;;
30872;SDS011;17579;42.690;2.586;2023-06-14T05:47:10;1.27;;;1.20;;
30872;SDS011;17579;42.690;2.586;2023-06-14T05:49:36;1.35;;;1.20;;
30872;SDS011;17579;42.690;2.586;2023-06-14T05:52:02;1.60;;;1.50;;
30872;SDS011;17579;42.690;2.586;2023-06-14T05:54:42;2.10;;;2.00;;
30872;SDS011;17579;42.690;2.586;2023-06-14T05:57:40;2.40;;;2.20;;
30872;SDS011;17579;42.690;2.586;2023-06-14T06:00:07;2.67;;;2.47;;
30872;SDS011;17579;42.690;2.586;2023-06-14T06:02:39;3.35;;;2.60;;
30872;SDS011;17579;42.690;2.586;2023-06-14T06:05:13;3.20;;;2.90;;
30872;SDS011;17579;42.690;2.586;2023-06-14T06:10:38;3.15;;;2.95;;
30872;SDS011;17579;42.690;2.586;2023-06-14T06:13:24;3.30;;;3.08;;
30872;SDS011;17579;42.690;2.586;2023-06-14T06:16:00;3.40;;;3.20;;
30872;SDS011;17579;42.690;2.586;2023-06-14T06:18:40;3.58;;;3.28;;
30872;SDS011;17579;42.690;2.586;2023-06-14T06:21:06;3.72;;;3.42;;
30872;SDS011;17579;42.690;2.586;2023-06-14T06:23:32;4.57;;;4.18;;
30872;SDS011;17579;42.690;2.586;2023-06-14T06:26:11;4.00;;;3.70;;
30872;SDS011;17579;42.690;2.586;2023-06-14T06:28:39;4.25;;;3.85;;
30872;SDS011;17579;42.690;2.586;2023-06-14T06:31:14;4.35;;;4.00;;
30872;SDS011;17579;42.690;2.586;2023-06-14T06:33:40;4.50;;;4.13;;
30872;SDS011;17579;42.690;2.586;2023-06-14T06:36:08;4.18;;;3.83;;
30872;SDS011;17579;42.690;2.586;2023-06-14T06:38:39;4.40;;;4.00;;
30872;SDS011;17579;42.690;2.586;2023-06-14T06:41:21;4.35;;;4.05;;
30872;SDS011;17579;42.690;2.586;2023-06-14T06:43:59;4.22;;;3.92;;
30872;SDS011;17579;42.690;2.586;2023-06-14T06:46:34;4.43;;;4.03;;
30872;SDS011;17579;42.690;2.586;2023-06-14T06:49:10;4.07;;;3.78;;
30872;SDS011;17579;42.690;2.586;2023-06-14T06:51:41;3.95;;;3.65;;
30872;SDS011;17579;42.690;2.586;2023-06-14T06:54:11;3.95;;;3.22;;
30872;SDS011;17579;42.690;2.586;2023-06-14T06:56:39;3.35;;;3.15;;
30872;SDS011;17579;42.690;2.586;2023-06-14T07:01:44;2.80;;;2.60;;
30872;SDS011;17579;42.690;2.586;2023-06-14T07:01:51;2.35;;;2.22;;
30872;SDS011;17579;42.690;2.586;2023-06-14T07:04:39;2.22;;;2.13;;
30872;SDS011;17579;42.690;2.586;2023-06-14T07:07:08;2.22;;;2.13;;
30872;SDS011;17579;42.690;2.586;2023-06-14T07:09:35;2.08;;;1.98;;
30872;SDS011;17579;42.690;2.586;2023-06-14T07:12:25;2.30;;;1.92;;
30872;SDS011;17579;42.690;2.586;2023-06-14T07:14:51;2.17;;;2.03;;
30872;SDS011;17579;42.690;2.586;2023-06-14T07:17:19;2.60;;;2.35;;
30872;SDS011;17579;42.690;2.586;2023-06-14T07:19:55;2.30;;;2.10;;
30872;SDS011;17579;42.690;2.586;2023-06-14T07:22:21;2.05;;;1.95;;
30872;SDS011;17579;42.690;2.586;2023-06-14T07:24:56;2.65;;;2.45;;
30872;SDS011;17579;42.690;2.586;2023-06-14T07:27:34;2.83;;;2.50;;
30872;SDS011;17579;42.690;2.586;2023-06-14T07:30:10;2.17;;;2.05;;
30872;SDS011;17579;42.690;2.586;2023-06-14T07:32:42;2.40;;;2.20;;
30872;SDS011;17579;42.690;2.586;2023-06-14T07:35:21;2.85;;;2.08;;
30872;SDS011;17579;42.690;2.586;2023-06-14T07:37:52;2.08;;;1.98;;
30872;SDS011;17579;42.690;2.586;2023-06-14T07:40:33;2.50;;;1.92;;
30872;SDS011;17579;42.690;2.586;2023-06-14T07:42:59;2.10;;;2.00;;
30872;SDS011;17579;42.690;2.586;2023-06-14T07:45:32;1.70;;;1.60;;
30872;SDS011;17579;42.690;2.586;2023-06-14T07:48:07;1.65;;;1.55;;
30872;SDS011;17579;42.690;2.586;2023-06-14T07:50:44;1.73;;;1.63;;
30872;SDS011;17579;42.690;2.586;2023-06-14T07:53:10;1.65;;;1.55;;
30872;SDS011;17579;42.690;2.586;2023-06-14T07:55:44;1.60;;;1.50;;
30872;SDS011;17579;42.690;2.586;2023-06-14T07:58:12;1.73;;;1.63;;
30872;SDS011;17579;42.690;2.586;2023-06-14T08:00:47;2.40;;;2.05;;
30872;SDS011;17579;42.690;2.586;2023-06-14T08:03:37;2.00;;;1.90;;
30872;SDS011;17579;42.690;2.586;2023-06-14T08:06:15;2.00;;;1.90;;
30872;SDS011;17579;42.690;2.586;2023-06-14T08:08:46;2.42;;;2.00;;
30872;SDS011;17579;42.690;2.586;2023-06-14T08:11:20;2.10;;;2.00;;
30872;SDS011;17579;42.690;2.586;2023-06-14T08:13:52;1.80;;;1.70;;
30872;SDS011;17579;42.690;2.586;2023-06-14T08:16:28;1.30;;;1.20;;
30872;SDS011;17579;42.690;2.586;2023-06-14T08:18:56;1.88;;;1.77;;
30872;SDS011;17579;42.690;2.586;2023-06-14T08:21:33;2.47;;;1.83;;
30872;SDS011;17579;42.690;2.586;2023-06-14T08:24:06;1.33;;;1.23;;
30872;SDS011;17579;42.690;2.586;2023-06-14T08:26:40;1.45;;;1.35;;
30872;SDS011;17579;42.690;2.586;2023-06-14T08:29:08;1.60;;;1.50;;
30872;SDS011;17579;42.690;2.586;2023-06-14T08:34:52;2.40;;;2.00;;
30872;SDS011;17579;42.690;2.586;2023-06-14T08:37:24;2.40;;;2.20;;
30872;SDS011;17579;42.690;2.586;2023-06-14T08:39:59;2.50;;;2.30;;
30872;SDS011;17579;42.690;2.586;2023-06-14T08:45:35;2.20;;;1.90;;
30872;SDS011;17579;42.690;2.586;2023-06-14T08:48:03;1.95;;;1.85;;
30872;SDS011;17579;42.690;2.586;2023-06-14T08:50:42;2.45;;;2.25;;
30872;SDS011;17579;42.690;2.586;2023-06-14T08:53:11;2.78;;;2.58;;
30872;SDS011;17579;42.690;2.586;2023-06-14T08:55:50;2.78;;;2.58;;
30872;SDS011;17579;42.690;2.586;2023-06-14T08:58:28;3.92;;;3.63;;
30872;SDS011;17579;42.690;2.586;2023-06-14T09:01:01;5.30;;;4.80;;
30872;SDS011;17579;42.690;2.586;2023-06-14T09:03:39;4.97;;;4.57;;
30872;SDS011;17579;42.690;2.586;2023-06-14T09:06:07;5.82;;;5.28;;
30872;SDS011;17579;42.690;2.586;2023-06-14T09:08:40;5.95;;;5.45;;
30872;SDS011;17579;42.690;2.586;2023-06-14T09:11:10;5.65;;;5.07;;
30872;SDS011;17579;42.690;2.586;2023-06-14T09:13:41;5.68;;;5.18;;
30872;SDS011;17579;42.690;2.586;2023-06-14T09:16:10;4.75;;;4.45;;
30872;SDS011;17579;42.690;2.586;2023-06-14T09:18:40;6.18;;;5.68;;
30872;SDS011;17579;42.690;2.586;2023-06-14T09:21:11;6.18;;;5.63;;
30872;SDS011;17579;42.690;2.586;2023-06-14T09:23:42;5.70;;;5.20;;
30872;SDS011;17579;42.690;2.586;2023-06-14T09:26:19;5.57;;;5.18;;
30872;SDS011;17579;42.690;2.586;2023-06-14T09:31:56;6.35;;;5.85;;
30872;SDS011;17579;42.690;2.586;2023-06-14T09:34:28;6.32;;;5.78;;
30872;SDS011;17579;42.690;2.586;2023-06-14T09:36:54;6.93;;;5.78;;
30872;SDS011;17579;42.690;2.586;2023-06-14T09:39:25;6.03;;;5.25;;
30872;SDS011;17579;42.690;2.586;2023-06-14T09:41:54;8.25;;;6.00;;
30872;SDS011;17579;42.690;2.586;2023-06-14T09:44:29;6.03;;;5.47;;
30872;SDS011;17579;42.690;2.586;2023-06-14T09:46:55;5.55;;;5.15;;
30872;SDS011;17579;42.690;2.586;2023-06-14T09:49:44;5.95;;;5.35;;
30872;SDS011;17579;42.690;2.586;2023-06-14T09:52:24;6.25;;;5.75;;
30872;SDS011;17579;42.690;2.586;2023-06-14T09:54:51;6.43;;;5.63;;
30872;SDS011;17579;42.690;2.586;2023-06-14T09:57:23;6.28;;;5.70;;
30872;SDS011;17579;42.690;2.586;2023-06-14T10:00:03;6.65;;;6.15;;
30872;SDS011;17579;42.690;2.586;2023-06-14T10:02:39;6.88;;;5.72;;
30872;SDS011;17579;42.690;2.586;2023-06-14T10:05:18;6.53;;;5.93;;
30872;SDS011;17579;42.690;2.586;2023-06-14T10:07:59;6.40;;;5.90;;
30872;SDS011;17579;42.690;2.586;2023-06-14T10:10:35;6.47;;;5.97;;
30872;SDS011;17579;42.690;2.586;2023-06-14T10:13:07;6.22;;;5.65;;
30872;SDS011;17579;42.690;2.586;2023-06-14T10:18:22;7.80;;;6.05;;
30872;SDS011;17579;42.690;2.586;2023-06-14T10:21:23;6.68;;;6.00;;
30872;SDS011;17579;42.690;2.586;2023-06-14T10:24:06;7.15;;;6.45;;
30872;SDS011;17579;42.690;2.586;2023-06-14T10:26:39;6.30;;;5.70;;
30872;SDS011;17579;42.690;2.586;2023-06-14T10:29:20;6.57;;;5.97;;
30872;SDS011;17579;42.690;2.586;2023-06-14T10:31:56;6.90;;;6.18;;
30872;SDS011;17579;42.690;2.586;2023-06-14T10:34:33;6.50;;;5.90;;
30872;SDS011;17579;42.690;2.586;2023-06-14T10:37:12;6.25;;;5.72;;
30872;SDS011;17579;42.690;2.586;2023-06-14T10:39:47;6.28;;;5.72;;
30872;SDS011;17579;42.690;2.586;2023-06-14T10:42:35;6.35;;;5.75;;
30872;SDS011;17579;42.690;2.586;2023-06-14T10:45:04;6.82;;;5.93;;
30872;SDS011;17579;42.690;2.586;2023-06-14T10:47:33;5.85;;;5.35;;
30872;SDS011;17579;42.690;2.586;2023-06-14T10:52:38;5.72;;;5.32;;
30872;SDS011;17579;42.690;2.586;2023-06-14T10:57:36;6.68;;;6.07;;
30872;SDS011;17579;42.690;2.586;2023-06-14T11:00:11;6.75;;;6.05;;
30872;SDS011;17579;42.690;2.586;2023-06-14T11:11:00;18.70;;;5.90;;
30872;SDS011;17579;42.690;2.586;2023-06-14T11:13:34;6.50;;;5.90;;
30872;SDS011;17579;42.690;2.586;2023-06-14T11:16:16;7.00;;;6.43;;
30872;SDS011;17579;42.690;2.586;2023-06-14T11:18:44;6.28;;;5.68;;
30872;SDS011;17579;42.690;2.586;2023-06-14T11:23:55;6.45;;;5.82;;
30872;SDS011;17579;42.690;2.586;2023-06-14T11:26:29;7.28;;;5.90;;
30872;SDS011;17579;42.690;2.586;2023-06-14T11:28:58;6.05;;;5.55;;
30872;SDS011;17579;42.690;2.586;2023-06-14T11:31:33;5.85;;;5.35;;
30872;SDS011;17579;42.690;2.586;2023-06-14T11:33:59;6.32;;;5.72;;
30872;SDS011;17579;42.690;2.586;2023-06-14T11:36:33;6.53;;;5.80;;
30872;SDS011;17579;42.690;2.586;2023-06-14T11:39:03;5.82;;;5.30;;
30872;SDS011;17579;42.690;2.586;2023-06-14T11:44:03;6.05;;;5.55;;
30872;SDS011;17579;42.690;2.586;2023-06-14T11:46:35;5.95;;;5.45;;
30872;SDS011;17579;42.690;2.586;2023-06-14T11:49:03;6.38;;;5.75;;
30872;SDS011;17579;42.690;2.586;2023-06-14T11:51:35;6.43;;;5.82;;
30872;SDS011;17579;42.690;2.586;2023-06-14T11:54:08;6.47;;;5.80;;
30872;SDS011;17579;42.690;2.586;2023-06-14T11:56:34;6.65;;;5.70;;
30872;SDS011;17579;42.690;2.586;2023-06-14T11:59:12;5.20;;;4.70;;
30872;SDS011;17579;42.690;2.586;2023-06-14T12:01:42;7.85;;;5.68;;
30872;SDS011;17579;42.690;2.586;2023-06-14T12:04:09;5.75;;;5.25;;
30872;SDS011;17579;42.690;2.586;2023-06-14T12:06:34;5.55;;;5.05;;
30872;SDS011;17579;42.690;2.586;2023-06-14T12:09:05;5.65;;;5.25;;
30872;SDS011;17579;42.690;2.586;2023-06-14T12:11:35;5.95;;;5.35;;
30872;SDS011;17579;42.690;2.586;2023-06-14T12:14:11;6.45;;;5.85;;
30872;SDS011;17579;42.690;2.586;2023-06-14T12:16:40;6.60;;;6.00;;
30872;SDS011;17579;42.690;2.586;2023-06-14T12:19:13;5.75;;;5.15;;
30872;SDS011;17579;42.690;2.586;2023-06-14T12:21:46;7.00;;;5.47;;
30872;SDS011;17579;42.690;2.586;2023-06-14T12:24:16;5.97;;;5.47;;
30872;SDS011;17579;42.690;2.586;2023-06-14T12:26:45;6.40;;;5.80;;
30872;SDS011;17579;42.690;2.586;2023-06-14T12:29:21;6.05;;;5.55;;
30872;SDS011;17579;42.690;2.586;2023-06-14T12:31:52;6.38;;;5.43;;
30872;SDS011;17579;42.690;2.586;2023-06-14T12:34:24;6.75;;;6.18;;
30872;SDS011;17579;42.690;2.586;2023-06-14T12:36:53;7.30;;;6.25;;
30872;SDS011;17579;42.690;2.586;2023-06-14T12:39:25;6.55;;;5.50;;
30872;SDS011;17579;42.690;2.586;2023-06-14T12:41:59;5.95;;;5.38;;
30872;SDS011;17579;42.690;2.586;2023-06-14T12:44:30;6.45;;;5.82;;
30872;SDS011;17579;42.690;2.586;2023-06-14T12:47:08;7.20;;;5.47;;
30872;SDS011;17579;42.690;2.586;2023-06-14T12:49:44;6.45;;;5.57;;
30872;SDS011;17579;42.690;2.586;2023-06-14T12:52:15;6.82;;;5.97;;
30872;SDS011;17579;42.690;2.586;2023-06-14T12:54:44;6.15;;;5.60;;
30872;SDS011;17579;42.690;2.586;2023-06-14T12:57:18;6.00;;;5.50;;
30872;SDS011;17579;42.690;2.586;2023-06-14T12:59:54;6.22;;;5.70;;
30872;SDS011;17579;42.690;2.586;2023-06-14T13:02:25;6.10;;;5.50;;
30872;SDS011;17579;42.690;2.586;2023-06-14T13:04:56;6.38;;;5.78;;
30872;SDS011;17579;42.690;2.586;2023-06-14T13:07:28;6.05;;;5.45;;
30872;SDS011;17579;42.690;2.586;2023-06-14T13:10:03;5.32;;;4.93;;
30872;SDS011;17579;42.690;2.586;2023-06-14T13:12:40;5.68;;;5.18;;
30872;SDS011;17579;42.690;2.586;2023-06-14T13:15:28;5.80;;;5.30;;
30872;SDS011;17579;42.690;2.586;2023-06-14T13:17:55;5.82;;;5.32;;
30872;SDS011;17579;42.690;2.586;2023-06-14T13:20:21;6.53;;;5.60;;
30872;SDS011;17579;42.690;2.586;2023-06-14T13:22:52;6.97;;;5.65;;
30872;SDS011;17579;42.690;2.586;2023-06-14T13:25:35;6.57;;;5.85;;
30872;SDS011;17579;42.690;2.586;2023-06-14T13:28:12;6.97;;;6.15;;
30872;SDS011;17579;42.690;2.586;2023-06-14T13:30:50;6.30;;;5.68;;
30872;SDS011;17579;42.690;2.586;2023-06-14T13:33:22;6.43;;;5.85;;
30872;SDS011;17579;42.690;2.586;2023-06-14T13:35:50;6.30;;;5.80;;
30872;SDS011;17579;42.690;2.586;2023-06-14T13:38:27;5.90;;;5.30;;
30872;SDS011;17579;42.690;2.586;2023-06-14T13:41:11;5.78;;;5.28;;
30872;SDS011;17579;42.690;2.586;2023-06-14T13:44:01;6.35;;;5.75;;
30872;SDS011;17579;42.690;2.586;2023-06-14T13:46:39;6.03;;;5.32;;
30872;SDS011;17579;42.690;2.586;2023-06-14T13:49:10;7.03;;;6.28;;
30872;SDS011;17579;42.690;2.586;2023-06-14T13:51:45;6.85;;;6.15;;
30872;SDS011;17579;42.690;2.586;2023-06-14T13:54:14;6.18;;;5.60;;
30872;SDS011;17579;42.690;2.586;2023-06-14T13:56:45;6.57;;;5.97;;
30872;SDS011;17579;42.690;2.586;2023-06-14T13:59:24;6.30;;;5.70;;
30872;SDS011;17579;42.690;2.586;2023-06-14T14:02:10;6.18;;;5.68;;
30872;SDS011;17579;42.690;2.586;2023-06-14T14:04:51;6.40;;;5.90;;
30872;SDS011;17579;42.690;2.586;2023-06-14T14:07:18;6.43;;;5.78;;
30872;SDS011;17579;42.690;2.586;2023-06-14T14:09:53;6.65;;;6.03;;
30872;SDS011;17579;42.690;2.586;2023-06-14T14:12:22;6.55;;;5.90;;
30872;SDS011;17579;42.690;2.586;2023-06-14T14:17:34;6.25;;;5.65;;
30872;SDS011;17579;42.690;2.586;2023-06-14T14:20:13;6.35;;;5.75;;
30872;SDS011;17579;42.690;2.586;2023-06-14T14:23:29;6.80;;;6.10;;
30872;SDS011;17579;42.690;2.586;2023-06-14T14:28:50;7.45;;;5.63;;
30872;SDS011;17579;42.690;2.586;2023-06-14T14:34:26;6.32;;;5.72;;
30872;SDS011;17579;42.690;2.586;2023-06-14T14:36:54;5.72;;;5.20;;
30872;SDS011;17579;42.690;2.586;2023-06-14T14:39:30;5.78;;;5.28;;
30872;SDS011;17579;42.690;2.586;2023-06-14T14:42:19;5.75;;;5.05;;
30872;SDS011;17579;42.690;2.586;2023-06-14T14:44:54;6.20;;;5.70;;
30872;SDS011;17579;42.690;2.586;2023-06-14T14:47:31;6.18;;;5.45;;
30872;SDS011;17579;42.690;2.586;2023-06-14T14:50:02;7.53;;;6.03;;
30872;SDS011;17579;42.690;2.586;2023-06-14T14:52:49;4.93;;;4.53;;
30872;SDS011;17579;42.690;2.586;2023-06-14T14:55:18;5.47;;;4.97;;
30872;SDS011;17579;42.690;2.586;2023-06-14T14:58:09;5.63;;;5.05;;
30872;SDS011;17579;42.690;2.586;2023-06-14T15:00:47;5.60;;;5.10;;
30872;SDS011;17579;42.690;2.586;2023-06-14T15:06:28;5.40;;;5.00;;
30872;SDS011;17579;42.690;2.586;2023-06-14T15:09:05;5.85;;;4.95;;
30872;SDS011;17579;42.690;2.586;2023-06-14T15:11:45;6.15;;;4.60;;
30872;SDS011;17579;42.690;2.586;2023-06-14T15:14:15;4.95;;;4.50;;
30872;SDS011;17579;42.690;2.586;2023-06-14T15:16:41;4.90;;;4.50;;
30872;SDS011;17579;42.690;2.586;2023-06-14T15:19:17;5.55;;;4.85;;
30872;SDS011;17579;42.690;2.586;2023-06-14T15:21:43;5.07;;;4.57;;
30872;SDS011;17579;42.690;2.586;2023-06-14T15:24:11;5.30;;;4.80;;
30872;SDS011;17579;42.690;2.586;2023-06-14T15:26:49;5.75;;;5.18;;
30872;SDS011;17579;42.690;2.586;2023-06-14T15:29:24;6.82;;;5.20;;
30872;SDS011;17579;42.690;2.586;2023-06-14T15:32:01;5.38;;;4.80;;
30872;SDS011;17579;42.690;2.586;2023-06-14T15:34:38;5.38;;;4.88;;
30872;SDS011;17579;42.690;2.586;2023-06-14T15:37:12;5.65;;;5.07;;
30872;SDS011;17579;42.690;2.586;2023-06-14T15:39:38;5.90;;;4.75;;
30872;SDS011;17579;42.690;2.586;2023-06-14T15:42:23;4.80;;;4.35;;
30872;SDS011;17579;42.690;2.586;2023-06-14T15:48:07;5.35;;;4.40;;
30872;SDS011;17579;42.690;2.586;2023-06-14T15:50:43;5.57;;;5.07;;
30872;SDS011;17579;42.690;2.586;2023-06-14T15:53:11;5.28;;;4.45;;
30872;SDS011;17579;42.690;2.586;2023-06-14T15:55:40;5.47;;;4.90;;
30872;SDS011;17579;42.690;2.586;2023-06-14T15:58:09;5.32;;;4.82;;
30872;SDS011;17579;42.690;2.586;2023-06-14T16:00:35;6.95;;;4.90;;
30872;SDS011;17579;42.690;2.586;2023-06-14T16:03:05;9.40;;;4.95;;
30872;SDS011;17579;42.690;2.586;2023-06-14T16:05:36;5.35;;;4.95;;
30872;SDS011;17579;42.690;2.586;2023-06-14T16:08:13;4.90;;;4.40;;
30872;SDS011;17579;42.690;2.586;2023-06-14T16:10:43;5.00;;;4.60;;
30872;SDS011;17579;42.690;2.586;2023-06-14T16:13:11;5.35;;;4.93;;
30872;SDS011;17579;42.690;2.586;2023-06-14T16:15:43;5.40;;;4.90;;
30872;SDS011;17579;42.690;2.586;2023-06-14T16:18:09;5.25;;;4.38;;
30872;SDS011;17579;42.690;2.586;2023-06-14T16:20:34;5.10;;;4.70;;
30872;SDS011;17579;42.690;2.586;2023-06-14T16:23:04;5.05;;;4.65;;